Time;durP1;ratioP1;P1;durP2;ratioP2;P2;SDS_P1;SDS_P2;PMS_P1;PMS_P2;Temp;Humidity;BMP_temperature;BMP_pressure;BME280_temperature;BME280_humidity;BME280_pressure;Samples;Min_cycle;Max_cycle;Signal;HPM_P1;HPM_P2
2022/06/06 00:00:12;;;;;;;0.30;0.30;;;;;;;;;;4909949;29;20215;-87
2022/06/06 00:02:41;;;;;;;0.30;0.30;;;;;;;;;;4899883;29;20215;-87
2022/06/06 00:05:14;;;;;;;0.30;0.30;;;;;;;;;;4930919;29;20291;-87
2022/06/06 00:07:44;;;;;;;0.30;0.30;;;;;;;;;;4908529;29;20305;-87
2022/06/06 00:10:12;;;;;;;0.30;0.30;;;;;;;;;;4902511;29;20217;-87
2022/06/06 00:12:43;;;;;;;0.30;0.30;;;;;;;;;;4889785;29;20202;-88
2022/06/06 00:15:13;;;;;;;0.30;0.30;;;;;;;;;;4879928;29;20205;-88
2022/06/06 00:17:42;;;;;;;0.30;0.30;;;;;;;;;;4914783;29;20208;-87
2022/06/06 00:20:11;;;;;;;0.30;0.30;;;;;;;;;;4900060;29;20211;-88
2022/06/06 00:22:39;;;;;;;0.30;0.30;;;;;;;;;;4883625;29;20213;-87
2022/06/06 00:25:10;;;;;;;0.40;0.40;;;;;;;;;;4883402;29;20221;-87
2022/06/06 00:27:38;;;;;;;0.30;0.30;;;;;;;;;;4907064;29;20221;-87
2022/06/06 00:30:07;;;;;;;0.30;0.30;;;;;;;;;;4905322;29;20227;-87
2022/06/06 00:35:21;;;;;;;0.30;0.30;;;;;;;;;;4900665;29;20216;-88
2022/06/06 00:37:49;;;;;;;0.30;0.30;;;;;;;;;;4912181;29;20235;-87
2022/06/06 00:40:21;;;;;;;0.30;0.30;;;;;;;;;;4883252;29;20210;-87
2022/06/06 00:42:50;;;;;;;0.30;0.30;;;;;;;;;;4889236;29;20228;-87
2022/06/06 00:45:23;;;;;;;0.30;0.30;;;;;;;;;;4918824;29;20233;-87
2022/06/06 00:47:53;;;;;;;0.30;0.30;;;;;;;;;;4913125;29;20213;-87
2022/06/06 00:50:23;;;;;;;0.67;0.67;;;;;;;;;;4899672;29;20415;-87
2022/06/06 00:52:53;;;;;;;0.30;0.30;;;;;;;;;;4900111;29;20212;-87
2022/06/06 00:55:26;;;;;;;0.30;0.30;;;;;;;;;;4880006;29;20206;-87
2022/06/06 00:57:56;;;;;;;0.30;0.30;;;;;;;;;;4897493;29;20229;-87
2022/06/06 01:00:25;;;;;;;0.30;0.30;;;;;;;;;;4898527;29;20208;-87
2022/06/06 01:02:56;;;;;;;0.30;0.30;;;;;;;;;;4902825;29;20226;-88
2022/06/06 01:05:25;;;;;;;0.30;0.30;;;;;;;;;;4916282;29;20211;-87
2022/06/06 01:07:54;;;;;;;0.30;0.30;;;;;;;;;;4889132;29;20247;-87
2022/06/06 01:10:24;;;;;;;0.40;0.40;;;;;;;;;;4882897;29;20206;-87
2022/06/06 01:12:53;;;;;;;0.30;0.30;;;;;;;;;;4898298;29;20262;-88
2022/06/06 01:15:23;;;;;;;0.30;0.30;;;;;;;;;;4879733;29;20210;-87
2022/06/06 01:17:57;;;;;;;0.30;0.30;;;;;;;;;;4870847;29;20212;-86
2022/06/06 01:20:40;;;;;;;0.30;0.30;;;;;;;;;;4880897;29;20299;-87
2022/06/06 01:23:19;;;;;;;0.40;0.40;;;;;;;;;;4898193;29;20239;-87
2022/06/06 01:26:01;;;;;;;0.40;0.40;;;;;;;;;;4891707;29;20239;-88
2022/06/06 01:28:37;;;;;;;0.30;0.30;;;;;;;;;;4905101;29;20212;-87
2022/06/06 01:31:07;;;;;;;0.33;0.33;;;;;;;;;;4909871;29;20226;-87
2022/06/06 01:33:48;;;;;;;0.67;0.67;;;;;;;;;;4898763;29;20226;-86
2022/06/06 01:36:16;;;;;;;0.30;0.30;;;;;;;;;;4906426;29;20260;-88
2022/06/06 01:38:45;;;;;;;0.30;0.30;;;;;;;;;;4904851;29;20212;-88
2022/06/06 01:41:18;;;;;;;0.40;0.40;;;;;;;;;;4898555;29;20211;-89
2022/06/06 01:43:50;;;;;;;0.30;0.30;;;;;;;;;;4927112;29;20266;-89
2022/06/06 01:46:22;;;;;;;0.40;0.40;;;;;;;;;;4911127;29;20220;-89
2022/06/06 01:48:51;;;;;;;0.30;0.30;;;;;;;;;;4914659;29;20213;-88
2022/06/06 01:51:21;;;;;;;0.30;0.30;;;;;;;;;;4901921;29;20205;-87
2022/06/06 01:53:50;;;;;;;0.40;0.40;;;;;;;;;;4915128;29;20204;-89
2022/06/06 01:56:21;;;;;;;0.30;0.30;;;;;;;;;;4899161;29;20198;-90
2022/06/06 01:58:51;;;;;;;0.30;0.30;;;;;;;;;;4894661;29;20242;-90
2022/06/06 02:01:20;;;;;;;0.40;0.40;;;;;;;;;;4917912;29;20200;-90
2022/06/06 02:03:48;;;;;;;0.30;0.30;;;;;;;;;;4918805;29;20260;-91
2022/06/06 02:06:17;;;;;;;0.37;0.37;;;;;;;;;;4930634;29;20212;-91
2022/06/06 02:08:47;;;;;;;0.60;0.60;;;;;;;;;;4902990;29;20271;-91
2022/06/06 02:11:15;;;;;;;0.30;0.30;;;;;;;;;;4929374;29;20227;-91
2022/06/06 02:13:44;;;;;;;0.30;0.30;;;;;;;;;;4887428;29;20219;-89
2022/06/06 02:16:14;;;;;;;0.30;0.30;;;;;;;;;;4903519;29;20211;-90
2022/06/06 02:18:43;;;;;;;0.30;0.30;;;;;;;;;;4887085;29;20212;-90
2022/06/06 02:21:12;;;;;;;0.30;0.30;;;;;;;;;;4896398;29;20204;-89
2022/06/06 02:23:42;;;;;;;0.30;0.30;;;;;;;;;;4902943;29;21417;-90
2022/06/06 02:26:12;;;;;;;0.30;0.30;;;;;;;;;;4901970;29;20217;-91
2022/06/06 02:28:40;;;;;;;0.33;0.33;;;;;;;;;;4932265;29;20216;-91
2022/06/06 02:31:09;;;;;;;0.33;0.33;;;;;;;;;;4914542;29;20208;-91
2022/06/06 02:33:39;;;;;;;0.30;0.30;;;;;;;;;;4902227;29;20204;-91
2022/06/06 02:36:08;;;;;;;0.40;0.40;;;;;;;;;;4913947;29;20265;-91
2022/06/06 02:38:36;;;;;;;0.40;0.40;;;;;;;;;;4898874;29;20263;-91
2022/06/06 02:41:11;;;;;;;0.40;0.40;;;;;;;;;;4903739;29;20213;-90
2022/06/06 02:43:40;;;;;;;0.30;0.30;;;;;;;;;;4882405;29;20236;-90
2022/06/06 02:46:09;;;;;;;0.30;0.30;;;;;;;;;;4901183;29;20224;-91
2022/06/06 02:48:39;;;;;;;0.30;0.30;;;;;;;;;;4904161;29;20221;-89
2022/06/06 02:51:08;;;;;;;0.40;0.40;;;;;;;;;;4897225;29;20267;-90
2022/06/06 02:53:36;;;;;;;0.30;0.30;;;;;;;;;;4916191;29;20223;-91
2022/06/06 02:56:05;;;;;;;0.30;0.30;;;;;;;;;;4886178;29;20205;-90
2022/06/06 02:58:34;;;;;;;0.40;0.40;;;;;;;;;;4914971;29;20290;-88
2022/06/06 03:01:04;;;;;;;0.40;0.40;;;;;;;;;;4922401;29;20213;-89
2022/06/06 03:03:33;;;;;;;0.30;0.30;;;;;;;;;;4917390;29;20216;-89
2022/06/06 03:06:09;;;;;;;0.30;0.30;;;;;;;;;;4906894;29;20228;-88
2022/06/06 03:08:43;;;;;;;0.30;0.30;;;;;;;;;;4893129;29;20256;-90
2022/06/06 03:11:23;;;;;;;0.40;0.40;;;;;;;;;;4914989;29;20241;-90
2022/06/06 03:14:00;;;;;;;0.30;0.30;;;;;;;;;;4916563;29;20406;-90
2022/06/06 03:22:22;;;;;;;0.30;0.30;;;;;;;;;;4884898;29;20203;-90
2022/06/06 03:24:58;;;;;;;0.40;0.40;;;;;;;;;;4916167;29;20251;-90
2022/06/06 03:27:33;;;;;;;0.30;0.30;;;;;;;;;;4901919;29;20208;-90
2022/06/06 03:30:05;;;;;;;0.37;0.37;;;;;;;;;;4884791;29;20201;-88
2022/06/06 03:32:40;;;;;;;0.30;0.30;;;;;;;;;;4901802;29;20213;-90
2022/06/06 03:35:11;;;;;;;0.30;0.30;;;;;;;;;;4916150;29;20204;-90
2022/06/06 03:37:47;;;;;;;0.30;0.30;;;;;;;;;;4897062;29;20204;-90
2022/06/06 03:40:19;;;;;;;0.30;0.30;;;;;;;;;;4915654;29;20219;-90
2022/06/06 03:42:53;;;;;;;0.40;0.40;;;;;;;;;;4915861;29;20208;-89
2022/06/06 03:45:26;;;;;;;0.30;0.30;;;;;;;;;;4915503;29;20288;-90
2022/06/06 03:48:01;;;;;;;0.40;0.40;;;;;;;;;;4901093;29;20205;-89
2022/06/06 03:50:35;;;;;;;0.30;0.30;;;;;;;;;;4927812;29;20220;-89
2022/06/06 03:53:07;;;;;;;4.00;3.67;;;;;;;;;;4912854;29;20223;-89
2022/06/06 03:55:42;;;;;;;0.30;0.30;;;;;;;;;;4901401;29;20212;-88
2022/06/06 03:58:12;;;;;;;0.40;0.40;;;;;;;;;;4884047;29;20223;-89
2022/06/06 04:00:42;;;;;;;0.30;0.30;;;;;;;;;;4884414;29;20221;-88
2022/06/06 04:03:11;;;;;;;0.30;0.30;;;;;;;;;;4895579;29;20205;-89
2022/06/06 04:05:40;;;;;;;0.30;0.30;;;;;;;;;;4915656;29;20248;-89
2022/06/06 04:08:10;;;;;;;0.30;0.30;;;;;;;;;;4925499;28;20239;-88
2022/06/06 04:10:42;;;;;;;0.30;0.30;;;;;;;;;;4886280;29;20224;-90
2022/06/06 04:13:14;;;;;;;0.77;0.77;;;;;;;;;;4884073;29;20207;-88
2022/06/06 04:15:48;;;;;;;0.30;0.30;;;;;;;;;;4886383;29;20193;-88
2022/06/06 04:18:26;;;;;;;0.30;0.30;;;;;;;;;;4908180;29;20208;-88
2022/06/06 04:20:58;;;;;;;0.30;0.30;;;;;;;;;;4915850;29;20211;-88
2022/06/06 04:23:34;;;;;;;0.30;0.30;;;;;;;;;;4917990;29;20208;-88
2022/06/06 04:26:10;;;;;;;0.30;0.30;;;;;;;;;;4915076;29;20220;-88
2022/06/06 04:28:45;;;;;;;0.40;0.40;;;;;;;;;;4894380;29;20197;-89
2022/06/06 04:31:16;;;;;;;0.40;0.40;;;;;;;;;;4928715;29;20208;-86
2022/06/06 04:33:47;;;;;;;0.33;0.33;;;;;;;;;;4894376;29;20265;-86
2022/06/06 04:36:18;;;;;;;0.30;0.30;;;;;;;;;;4904349;29;20205;-86
2022/06/06 04:38:53;;;;;;;0.30;0.30;;;;;;;;;;4902192;29;20229;-86
2022/06/06 04:41:26;;;;;;;0.30;0.30;;;;;;;;;;4901252;29;20209;-87
2022/06/06 04:43:59;;;;;;;0.30;0.30;;;;;;;;;;4899620;29;20230;-87
2022/06/06 04:46:40;;;;;;;0.30;0.30;;;;;;;;;;4912487;29;20226;-86
2022/06/06 04:49:09;;;;;;;0.30;0.30;;;;;;;;;;4890082;29;20209;-86
2022/06/06 04:51:38;;;;;;;0.30;0.30;;;;;;;;;;4917460;29;20212;-86
2022/06/06 04:54:10;;;;;;;0.30;0.30;;;;;;;;;;4889620;29;20214;-86
2022/06/06 04:56:38;;;;;;;0.30;0.30;;;;;;;;;;4919448;29;20222;-85
2022/06/06 04:59:09;;;;;;;0.30;0.30;;;;;;;;;;4882576;29;20209;-85
2022/06/06 05:01:38;;;;;;;0.30;0.30;;;;;;;;;;4912074;29;20201;-86
2022/06/06 05:04:07;;;;;;;0.30;0.30;;;;;;;;;;4899212;29;20266;-85
2022/06/06 05:06:51;;;;;;;0.30;0.30;;;;;;;;;;4924927;29;20249;-86
2022/06/06 05:09:28;;;;;;;0.30;0.30;;;;;;;;;;4886669;29;20273;-85
2022/06/06 05:12:02;;;;;;;0.30;0.30;;;;;;;;;;4913364;29;20269;-85
2022/06/06 05:14:41;;;;;;;0.30;0.30;;;;;;;;;;4909727;29;20202;-86
2022/06/06 05:17:17;;;;;;;0.30;0.30;;;;;;;;;;4913178;29;20211;-86
2022/06/06 05:20:10;;;;;;;0.30;0.30;;;;;;;;;;4921390;29;20213;-86
2022/06/06 05:22:50;;;;;;;20.53;14.07;;;;;;;;;;4899547;29;20206;-85
2022/06/06 05:25:27;;;;;;;19.07;11.13;;;;;;;;;;4882025;29;20212;-83
2022/06/06 05:28:14;;;;;;;10.03;7.33;;;;;;;;;;4904667;29;20205;-84
2022/06/06 05:30:48;;;;;;;8.83;5.67;;;;;;;;;;4915818;29;20222;-84
2022/06/06 05:33:19;;;;;;;8.03;6.00;;;;;;;;;;4898429;29;20240;-84
2022/06/06 05:35:58;;;;;;;11.07;5.83;;;;;;;;;;4898091;29;20210;-84
2022/06/06 05:38:33;;;;;;;11.77;6.60;;;;;;;;;;4906527;29;20198;-83
2022/06/06 05:41:08;;;;;;;12.37;8.70;;;;;;;;;;4901950;29;20211;-83
2022/06/06 05:43:41;;;;;;;7.37;4.53;;;;;;;;;;4881521;29;20217;-83
2022/06/06 05:46:15;;;;;;;9.83;5.07;;;;;;;;;;4914395;29;20229;-83
2022/06/06 05:48:58;;;;;;;9.30;5.30;;;;;;;;;;4916755;29;20213;-84
2022/06/06 05:51:32;;;;;;;14.73;4.37;;;;;;;;;;4888020;29;20301;-84
2022/06/06 05:54:10;;;;;;;12.83;7.80;;;;;;;;;;4875618;29;20213;-84
2022/06/06 05:56:54;;;;;;;11.67;6.87;;;;;;;;;;4887175;29;20301;-83
2022/06/06 05:59:35;;;;;;;8.83;4.70;;;;;;;;;;4881843;29;20221;-85
2022/06/06 06:02:12;;;;;;;7.33;5.07;;;;;;;;;;4884154;29;20213;-84
2022/06/06 06:04:56;;;;;;;6.77;4.23;;;;;;;;;;4906582;29;20235;-84
2022/06/06 06:07:31;;;;;;;2.73;2.53;;;;;;;;;;4911001;29;20227;-84
2022/06/06 06:10:10;;;;;;;4.80;3.70;;;;;;;;;;4898102;29;20249;-84
2022/06/06 06:12:49;;;;;;;9.80;4.47;;;;;;;;;;4912938;29;20209;-84
2022/06/06 06:15:26;;;;;;;7.67;4.93;;;;;;;;;;4925764;29;20214;-84
2022/06/06 06:17:55;;;;;;;4.70;3.90;;;;;;;;;;4909948;29;20211;-83
2022/06/06 06:20:25;;;;;;;5.70;5.17;;;;;;;;;;4898044;29;20205;-83
2022/06/06 06:22:57;;;;;;;7.53;3.27;;;;;;;;;;4905757;29;20204;-84
2022/06/06 06:25:26;;;;;;;4.53;4.13;;;;;;;;;;4916800;29;20207;-84
2022/06/06 06:27:58;;;;;;;13.13;4.50;;;;;;;;;;4881448;29;20230;-85
2022/06/06 06:30:29;;;;;;;8.03;4.43;;;;;;;;;;4898057;29;20217;-84
2022/06/06 06:33:04;;;;;;;3.33;3.03;;;;;;;;;;4917374;29;20203;-84
2022/06/06 06:35:37;;;;;;;4.30;3.07;;;;;;;;;;4904289;29;20221;-84
2022/06/06 06:38:25;;;;;;;6.13;4.03;;;;;;;;;;4899907;29;20211;-84
2022/06/06 06:40:57;;;;;;;4.43;3.13;;;;;;;;;;4881185;29;20214;-84
2022/06/06 06:43:31;;;;;;;4.03;2.87;;;;;;;;;;4881078;29;20287;-84
2022/06/06 06:46:03;;;;;;;2.57;2.37;;;;;;;;;;4912625;29;20217;-84
2022/06/06 06:48:32;;;;;;;7.47;4.13;;;;;;;;;;4906810;29;20275;-84
2022/06/06 06:51:02;;;;;;;7.73;3.90;;;;;;;;;;4894474;29;20225;-84
2022/06/06 06:53:38;;;;;;;6.27;3.67;;;;;;;;;;4916068;29;20218;-85
2022/06/06 06:56:12;;;;;;;4.07;2.93;;;;;;;;;;4901183;29;20219;-84
2022/06/06 06:58:52;;;;;;;8.13;3.33;;;;;;;;;;4884630;29;20207;-83
2022/06/06 07:01:24;;;;;;;8.93;3.80;;;;;;;;;;4916138;29;20215;-84
2022/06/06 07:09:46;;;;;;;5.70;3.73;;;;;;;;;;4905373;29;20243;-84
2022/06/06 07:12:24;;;;;;;6.40;3.40;;;;;;;;;;4884320;29;20213;-84
2022/06/06 07:15:03;;;;;;;10.37;3.20;;;;;;;;;;4915396;29;20214;-84
2022/06/06 07:17:37;;;;;;;4.03;3.63;;;;;;;;;;4901084;29;20195;-84
2022/06/06 07:20:07;;;;;;;4.93;2.97;;;;;;;;;;4884446;29;20225;-85
2022/06/06 07:25:22;;;;;;;9.60;4.20;;;;;;;;;;4902539;29;20235;-84
2022/06/06 07:27:50;;;;;;;8.17;4.07;;;;;;;;;;4884701;29;20235;-85
2022/06/06 07:30:20;;;;;;;4.00;3.17;;;;;;;;;;4911305;29;20219;-85
2022/06/06 07:33:00;;;;;;;10.13;5.10;;;;;;;;;;4917171;29;20214;-84
2022/06/06 07:35:34;;;;;;;10.57;5.73;;;;;;;;;;4883900;29;20211;-84
2022/06/06 07:38:16;;;;;;;1.53;1.43;;;;;;;;;;4883722;29;20199;-84
2022/06/06 07:40:52;;;;;;;3.60;1.77;;;;;;;;;;4883831;29;20289;-85
2022/06/06 07:43:28;;;;;;;8.13;3.00;;;;;;;;;;4883751;29;20262;-85
2022/06/06 07:46:03;;;;;;;3.07;2.03;;;;;;;;;;4896772;29;20206;-85
2022/06/06 07:48:42;;;;;;;4.03;1.87;;;;;;;;;;4913642;29;20283;-84
2022/06/06 07:51:20;;;;;;;2.00;1.80;;;;;;;;;;4906883;29;20211;-85
2022/06/06 07:53:54;;;;;;;4.50;2.70;;;;;;;;;;4883581;29;20206;-85
2022/06/06 07:56:26;;;;;;;3.20;3.00;;;;;;;;;;4883505;29;20207;-85
2022/06/06 07:59:07;;;;;;;9.17;2.80;;;;;;;;;;4905313;29;20205;-85
2022/06/06 08:01:40;;;;;;;4.93;2.70;;;;;;;;;;4890014;29;20227;-85
2022/06/06 08:04:22;;;;;;;6.80;2.53;;;;;;;;;;4870675;29;20199;-85
2022/06/06 08:06:55;;;;;;;7.70;2.53;;;;;;;;;;4900062;29;20211;-84
2022/06/06 08:09:33;;;;;;;7.50;3.13;;;;;;;;;;4891340;29;20235;-83
2022/06/06 08:12:16;;;;;;;3.60;2.57;;;;;;;;;;4915731;29;20214;-85
2022/06/06 08:14:57;;;;;;;7.20;3.07;;;;;;;;;;4933351;29;20224;-85
2022/06/06 08:17:28;;;;;;;2.30;0.97;;;;;;;;;;4901355;29;20206;-85
2022/06/06 08:20:02;;;;;;;2.43;1.87;;;;;;;;;;4914236;29;20207;-85
2022/06/06 08:22:32;;;;;;;1.93;1.53;;;;;;;;;;4886254;29;20212;-85
2022/06/06 08:25:03;;;;;;;8.33;2.80;;;;;;;;;;4892579;29;20232;-84
2022/06/06 08:27:35;;;;;;;6.40;2.53;;;;;;;;;;4882869;29;20322;-85
2022/06/06 08:30:04;;;;;;;2.50;1.50;;;;;;;;;;4914247;29;20267;-85
2022/06/06 08:32:33;;;;;;;2.23;1.97;;;;;;;;;;4899498;29;20230;-85
2022/06/06 08:35:03;;;;;;;1.57;1.30;;;;;;;;;;4899438;29;20211;-85
2022/06/06 08:37:37;;;;;;;2.00;1.53;;;;;;;;;;4895718;29;20211;-85
2022/06/06 08:40:17;;;;;;;1.90;1.27;;;;;;;;;;4882807;29;20234;-85
2022/06/06 08:42:54;;;;;;;1.67;1.37;;;;;;;;;;4896004;29;20287;-85
2022/06/06 08:45:26;;;;;;;4.47;2.80;;;;;;;;;;4908260;29;20198;-85
2022/06/06 08:48:02;;;;;;;3.70;1.67;;;;;;;;;;4903829;29;20220;-85
2022/06/06 08:50:53;;;;;;;7.97;2.23;;;;;;;;;;4917056;29;20234;-85
2022/06/06 08:53:52;;;;;;;7.30;2.43;;;;;;;;;;4903926;29;20214;-85
2022/06/06 08:56:29;;;;;;;4.27;1.73;;;;;;;;;;4914197;29;20223;-85
2022/06/06 08:59:05;;;;;;;3.50;1.50;;;;;;;;;;4916915;29;20209;-85
2022/06/06 09:01:46;;;;;;;3.20;1.60;;;;;;;;;;4917082;29;20219;-85
2022/06/06 09:04:37;;;;;;;5.73;1.90;;;;;;;;;;4886433;29;20207;-86
2022/06/06 09:07:38;;;;;;;4.27;2.23;;;;;;;;;;4913501;29;20207;-86
2022/06/06 09:10:24;;;;;;;2.30;1.83;;;;;;;;;;4888221;29;20244;-86
2022/06/06 09:13:09;;;;;;;4.23;1.80;;;;;;;;;;4898289;29;20220;-86
2022/06/06 09:15:58;;;;;;;2.00;1.77;;;;;;;;;;4882128;29;20211;-86
2022/06/06 09:18:48;;;;;;;1.73;1.63;;;;;;;;;;4908560;29;20208;-85
2022/06/06 09:21:34;;;;;;;3.13;1.90;;;;;;;;;;4882286;29;20219;-85
2022/06/06 09:24:27;;;;;;;4.10;2.20;;;;;;;;;;4873124;29;20215;-85
2022/06/06 09:27:06;;;;;;;2.30;1.30;;;;;;;;;;4895984;29;20211;-85
2022/06/06 09:29:48;;;;;;;3.20;1.47;;;;;;;;;;4916097;29;20226;-85
2022/06/06 09:32:33;;;;;;;1.10;1.07;;;;;;;;;;4932197;29;20210;-85
2022/06/06 09:35:12;;;;;;;3.50;1.50;;;;;;;;;;4909724;29;20207;-85
2022/06/06 09:37:55;;;;;;;1.77;1.57;;;;;;;;;;4885564;29;20208;-85
2022/06/06 09:40:29;;;;;;;4.17;2.20;;;;;;;;;;4891455;29;20207;-85
2022/06/06 09:43:08;;;;;;;3.87;2.00;;;;;;;;;;4915194;29;20196;-85
2022/06/06 09:45:43;;;;;;;7.40;2.27;;;;;;;;;;4913287;29;20203;-85
2022/06/06 09:48:38;;;;;;;3.40;1.60;;;;;;;;;;4916659;29;20251;-84
2022/06/06 09:51:34;;;;;;;4.53;1.70;;;;;;;;;;4899001;29;20252;-85
2022/06/06 10:00:14;;;;;;;7.37;2.70;;;;;;;;;;4875447;29;20229;-84
2022/06/06 10:02:57;;;;;;;3.33;1.77;;;;;;;;;;4898524;29;20215;-85
2022/06/06 10:05:46;;;;;;;5.17;2.43;;;;;;;;;;4915126;29;20212;-85
2022/06/06 10:08:27;;;;;;;2.47;2.03;;;;;;;;;;4916189;29;20213;-85
2022/06/06 10:11:09;;;;;;;3.47;1.93;;;;;;;;;;4897130;29;20222;-85
2022/06/06 10:13:43;;;;;;;1.43;1.10;;;;;;;;;;4881591;29;20203;-85
2022/06/06 10:16:27;;;;;;;4.03;2.50;;;;;;;;;;4912868;29;20209;-85
2022/06/06 10:19:20;;;;;;;6.17;2.33;;;;;;;;;;4912108;29;20196;-85
2022/06/06 10:22:00;;;;;;;4.70;1.80;;;;;;;;;;4892888;29;20278;-85
2022/06/06 10:24:34;;;;;;;2.43;2.00;;;;;;;;;;4889967;29;20207;-85
2022/06/06 10:27:05;;;;;;;3.57;2.87;;;;;;;;;;4920960;29;20202;-85
2022/06/06 10:32:39;;;;;;;4.03;1.87;;;;;;;;;;4902420;29;20222;-85
2022/06/06 10:35:16;;;;;;;4.83;2.23;;;;;;;;;;4912073;29;20203;-84
2022/06/06 10:38:05;;;;;;;5.73;2.30;;;;;;;;;;4931890;29;20211;-85
2022/06/06 10:40:45;;;;;;;5.20;2.47;;;;;;;;;;4892076;29;20207;-85
2022/06/06 10:43:21;;;;;;;6.13;2.67;;;;;;;;;;4914823;29;20235;-85
2022/06/06 10:45:54;;;;;;;3.73;2.80;;;;;;;;;;4928470;29;20297;-85
2022/06/06 10:48:34;;;;;;;5.20;2.57;;;;;;;;;;4903852;29;20202;-84
2022/06/06 10:54:14;;;;;;;4.00;2.10;;;;;;;;;;4916082;29;20215;-85
2022/06/06 10:56:58;;;;;;;2.00;1.47;;;;;;;;;;4884341;29;20215;-85
2022/06/06 10:59:43;;;;;;;2.90;2.17;;;;;;;;;;4909694;29;20199;-86
2022/06/06 11:02:24;;;;;;;6.23;3.00;;;;;;;;;;4915039;29;20234;-85
2022/06/06 11:05:08;;;;;;;3.77;2.10;;;;;;;;;;4896085;29;20210;-85
2022/06/06 11:08:07;;;;;;;6.77;3.50;;;;;;;;;;4907304;29;20195;-85
2022/06/06 11:10:59;;;;;;;5.63;1.90;;;;;;;;;;4918791;29;20211;-84
2022/06/06 11:13:30;;;;;;;3.87;3.07;;;;;;;;;;4907933;29;20218;-85
2022/06/06 11:16:18;;;;;;;6.23;2.87;;;;;;;;;;4915593;29;20207;-85
2022/06/06 11:18:55;;;;;;;7.43;2.90;;;;;;;;;;4915563;29;20214;-85
2022/06/06 11:21:39;;;;;;;2.30;2.10;;;;;;;;;;4915677;29;20206;-85
2022/06/06 11:24:13;;;;;;;1.83;1.67;;;;;;;;;;4898280;29;20211;-85
2022/06/06 11:26:52;;;;;;;0.60;0.60;;;;;;;;;;4919415;29;20224;-84
2022/06/06 11:29:27;;;;;;;4.40;2.67;;;;;;;;;;4917874;29;20222;-85
2022/06/06 11:32:02;;;;;;;1.97;1.50;;;;;;;;;;4894429;29;20238;-86
2022/06/06 11:34:52;;;;;;;1.70;1.60;;;;;;;;;;4920945;29;20198;-85
2022/06/06 11:37:47;;;;;;;3.13;2.70;;;;;;;;;;4915084;29;20212;-86
2022/06/06 11:40:35;;;;;;;5.40;2.80;;;;;;;;;;4900813;29;20218;-85
2022/06/06 11:43:17;;;;;;;4.13;3.20;;;;;;;;;;4900826;29;20207;-85
2022/06/06 11:45:56;;;;;;;4.50;1.80;;;;;;;;;;4906445;29;20216;-85
2022/06/06 11:48:35;;;;;;;2.87;1.97;;;;;;;;;;4916550;29;20203;-85
2022/06/06 11:51:23;;;;;;;1.93;1.83;;;;;;;;;;4919151;29;20226;-85
2022/06/06 11:54:09;;;;;;;2.20;1.20;;;;;;;;;;4920613;29;20211;-85
2022/06/06 11:56:53;;;;;;;5.13;1.50;;;;;;;;;;4933477;29;20211;-85
2022/06/06 11:59:35;;;;;;;3.17;2.47;;;;;;;;;;4883698;29;20190;-85
2022/06/06 12:02:15;;;;;;;9.53;5.00;;;;;;;;;;4896150;29;20219;-86
2022/06/06 12:05:03;;;;;;;7.70;3.70;;;;;;;;;;4888375;29;20211;-87
2022/06/06 12:07:46;;;;;;;4.03;2.90;;;;;;;;;;4885003;29;20288;-85
2022/06/06 12:10:19;;;;;;;3.87;2.40;;;;;;;;;;4910588;29;20288;-90
2022/06/06 12:12:53;;;;;;;3.97;2.67;;;;;;;;;;4909797;29;20201;-91
2022/06/06 12:15:40;;;;;;;8.23;2.83;;;;;;;;;;4895109;29;20195;-88
2022/06/06 12:18:20;;;;;;;6.70;2.37;;;;;;;;;;4897908;29;20216;-90
2022/06/06 12:21:03;;;;;;;2.30;2.13;;;;;;;;;;4898279;29;20206;-90
2022/06/06 12:23:39;;;;;;;2.07;1.27;;;;;;;;;;4873796;29;20226;-91
2022/06/06 12:26:18;;;;;;;1.40;0.93;;;;;;;;;;4905187;29;20209;-90
2022/06/06 12:29:04;;;;;;;2.63;1.40;;;;;;;;;;4890904;29;20226;-91
2022/06/06 12:31:38;;;;;;;5.57;1.50;;;;;;;;;;4894725;29;20301;-89
2022/06/06 12:34:10;;;;;;;4.80;1.50;;;;;;;;;;4888883;29;20268;-90
2022/06/06 12:36:46;;;;;;;0.90;0.90;;;;;;;;;;4904217;29;20232;-89
2022/06/06 12:39:17;;;;;;;3.50;1.50;;;;;;;;;;4912979;29;20213;-91
2022/06/06 12:41:55;;;;;;;2.67;0.73;;;;;;;;;;4897935;29;20214;-89
2022/06/06 12:44:30;;;;;;;0.80;0.73;;;;;;;;;;4915156;29;20236;-89
2022/06/06 12:47:18;;;;;;;1.13;1.07;;;;;;;;;;4898087;29;20357;-89
2022/06/06 12:50:01;;;;;;;1.20;1.00;;;;;;;;;;4897148;29;20270;-88
2022/06/06 12:52:41;;;;;;;1.50;0.70;;;;;;;;;;4887646;29;20236;-88
2022/06/06 12:55:33;;;;;;;2.07;1.57;;;;;;;;;;4878921;29;20209;-87
2022/06/06 12:58:09;;;;;;;0.67;0.67;;;;;;;;;;4906105;29;20211;-87
2022/06/06 13:03:32;;;;;;;1.97;1.10;;;;;;;;;;4917688;29;20211;-86
2022/06/06 13:06:07;;;;;;;3.40;1.60;;;;;;;;;;4883585;29;20208;-87
2022/06/06 13:08:54;;;;;;;1.20;1.20;;;;;;;;;;4904546;29;20242;-87
2022/06/06 13:11:34;;;;;;;0.60;0.60;;;;;;;;;;4917463;29;20216;-87
2022/06/06 13:14:09;;;;;;;1.60;0.73;;;;;;;;;;4887733;29;20197;-87
2022/06/06 13:16:45;;;;;;;0.73;0.73;;;;;;;;;;4897940;29;20212;-88
2022/06/06 13:19:24;;;;;;;1.43;1.13;;;;;;;;;;4898469;29;20231;-88
2022/06/06 13:22:00;;;;;;;3.43;1.23;;;;;;;;;;4907492;29;20221;-87
2022/06/06 13:24:43;;;;;;;1.10;1.10;;;;;;;;;;4894917;29;20212;-88
2022/06/06 13:27:17;;;;;;;3.67;2.07;;;;;;;;;;4886375;29;20258;-87
2022/06/06 13:29:46;;;;;;;1.93;1.80;;;;;;;;;;4907078;29;20234;-86
2022/06/06 13:32:23;;;;;;;5.73;2.10;;;;;;;;;;4914485;29;20220;-87
2022/06/06 13:34:59;;;;;;;2.53;0.90;;;;;;;;;;4880818;29;20200;-87
2022/06/06 13:37:37;;;;;;;1.47;1.37;;;;;;;;;;4909009;29;20206;-86
2022/06/06 13:40:20;;;;;;;2.03;1.40;;;;;;;;;;4903759;29;20271;-87
2022/06/06 13:43:06;;;;;;;1.10;1.00;;;;;;;;;;4912317;29;20207;-86
2022/06/06 13:45:38;;;;;;;0.80;0.80;;;;;;;;;;4890919;29;20211;-85
2022/06/06 13:48:24;;;;;;;2.73;1.90;;;;;;;;;;4897757;29;20197;-87
2022/06/06 13:51:00;;;;;;;1.60;0.93;;;;;;;;;;4905513;29;20236;-87
2022/06/06 13:53:43;;;;;;;5.23;1.43;;;;;;;;;;4876746;29;20211;-87
2022/06/06 13:56:17;;;;;;;3.07;1.77;;;;;;;;;;4886902;29;20251;-85
2022/06/06 13:58:51;;;;;;;4.20;2.80;;;;;;;;;;4885384;29;20231;-86
2022/06/06 14:01:29;;;;;;;6.43;2.83;;;;;;;;;;4897419;29;20216;-86
2022/06/06 14:04:04;;;;;;;1.97;1.43;;;;;;;;;;4895336;29;20206;-86
2022/06/06 14:06:42;;;;;;;2.63;1.97;;;;;;;;;;4915212;29;20224;-86
2022/06/06 14:09:16;;;;;;;4.47;2.30;;;;;;;;;;4895153;29;20258;-86
2022/06/06 14:12:02;;;;;;;3.60;2.30;;;;;;;;;;4922620;29;20222;-85
2022/06/06 14:14:32;;;;;;;8.30;1.90;;;;;;;;;;4872625;29;20207;-85
2022/06/06 14:17:23;;;;;;;2.83;1.63;;;;;;;;;;4925590;29;20210;-86
2022/06/06 14:20:00;;;;;;;2.63;1.17;;;;;;;;;;4916666;29;20269;-87
2022/06/06 14:22:30;;;;;;;3.73;1.70;;;;;;;;;;4900249;29;20201;-87
2022/06/06 14:25:02;;;;;;;2.17;1.30;;;;;;;;;;4903419;29;20208;-88
2022/06/06 14:27:31;;;;;;;3.73;1.87;;;;;;;;;;4899562;29;20239;-88
2022/06/06 14:30:01;;;;;;;0.70;0.70;;;;;;;;;;4895882;29;20214;-84
2022/06/06 14:32:31;;;;;;;2.40;1.67;;;;;;;;;;4897403;29;20244;-87
2022/06/06 14:35:00;;;;;;;4.47;2.23;;;;;;;;;;4882002;29;20204;-87
2022/06/06 14:37:29;;;;;;;3.13;1.90;;;;;;;;;;4899533;29;20205;-87
2022/06/06 14:39:59;;;;;;;1.77;1.67;;;;;;;;;;4903340;29;20208;-87
2022/06/06 14:42:33;;;;;;;1.50;1.40;;;;;;;;;;4887290;29;20197;-87
2022/06/06 14:45:04;;;;;;;1.33;1.23;;;;;;;;;;4919100;29;20235;-86
2022/06/06 14:47:33;;;;;;;3.13;1.73;;;;;;;;;;4912552;29;20204;-88
2022/06/06 14:52:51;;;;;;;3.87;1.90;;;;;;;;;;4890417;29;20223;-87
2022/06/06 14:55:21;;;;;;;3.80;2.20;;;;;;;;;;4918684;29;20208;-86
2022/06/06 14:57:51;;;;;;;1.70;1.10;;;;;;;;;;4919415;29;20219;-87
2022/06/06 15:00:32;;;;;;;2.73;2.27;;;;;;;;;;4932033;29;20207;-87
2022/06/06 15:03:04;;;;;;;3.87;3.50;;;;;;;;;;4914442;29;20241;-86
2022/06/06 15:05:33;;;;;;;5.03;2.90;;;;;;;;;;4908899;29;20196;-86
2022/06/06 15:08:04;;;;;;;4.20;3.70;;;;;;;;;;4910460;29;20216;-86
2022/06/06 15:10:37;;;;;;;2.37;2.17;;;;;;;;;;4916183;29;20212;-86
2022/06/06 15:13:07;;;;;;;1.73;1.57;;;;;;;;;;4925270;29;20207;-87
2022/06/06 15:15:43;;;;;;;2.10;1.80;;;;;;;;;;4890171;29;20305;-87
2022/06/06 15:18:18;;;;;;;2.73;2.23;;;;;;;;;;4934780;29;20207;-87
2022/06/06 15:20:52;;;;;;;5.10;2.13;;;;;;;;;;4919480;29;20234;-87
2022/06/06 15:23:22;;;;;;;6.73;2.50;;;;;;;;;;4909117;29;20209;-87
2022/06/06 15:25:52;;;;;;;3.87;2.43;;;;;;;;;;4903552;29;20200;-87
2022/06/06 15:28:47;;;;;;;3.97;2.20;;;;;;;;;;4934534;29;20238;-87
2022/06/06 15:31:21;;;;;;;7.33;3.60;;;;;;;;;;4918496;29;20214;-84
2022/06/06 15:33:58;;;;;;;9.00;3.80;;;;;;;;;;4922924;29;20238;-86
2022/06/06 15:36:30;;;;;;;4.63;3.13;;;;;;;;;;4901300;29;20220;-88
2022/06/06 15:39:16;;;;;;;6.80;4.73;;;;;;;;;;4896545;29;20218;-87
2022/06/06 15:41:48;;;;;;;9.00;4.57;;;;;;;;;;4903959;29;20294;-88
2022/06/06 15:44:24;;;;;;;7.03;4.40;;;;;;;;;;4900750;29;20235;-88
2022/06/06 15:46:57;;;;;;;7.37;4.80;;;;;;;;;;4900950;29;20207;-88
2022/06/06 15:49:29;;;;;;;8.73;4.73;;;;;;;;;;4924945;29;20211;-88
2022/06/06 15:52:03;;;;;;;6.37;4.80;;;;;;;;;;4934592;29;20211;-89
2022/06/06 15:54:44;;;;;;;3.93;3.53;;;;;;;;;;4924132;29;20203;-88
2022/06/06 15:57:17;;;;;;;9.67;6.13;;;;;;;;;;4888968;29;20210;-88
2022/06/06 15:59:55;;;;;;;13.23;5.83;;;;;;;;;;4923142;29;20243;-89
2022/06/06 16:02:34;;;;;;;2.77;2.50;;;;;;;;;;4915264;29;20200;-89
2022/06/06 16:05:05;;;;;;;12.50;3.83;;;;;;;;;;4915573;29;20224;-90
2022/06/06 16:07:40;;;;;;;7.03;3.80;;;;;;;;;;4870772;29;20212;-89